Time;durP1;ratioP1;P1;durP2;ratioP2;P2;SDS_P1;SDS_P2;PMS_P1;PMS_P2;Temp;Humidity;BMP_temperature;BMP_pressure;BME280_temperature;BME280_humidity;BME280_pressure;Samples;Min_cycle;Max_cycle;Signal;HPM_P1;HPM_P2
2023/08/15 00:01:57;;;;;;;8.68;6.85;;;24.30;49.40;;;;;;5003150;28;114863;-79
2023/08/15 00:04:24;;;;;;;8.02;6.32;;;24.20;50.40;;;;;;5002808;28;114323;-80
2023/08/15 00:06:51;;;;;;;7.82;6.40;;;24.10;50.80;;;;;;5002071;28;115419;-80
2023/08/15 00:09:18;;;;;;;8.20;6.70;;;24.10;51.00;;;;;;5001145;28;114580;-80
2023/08/15 00:11:45;;;;;;;7.32;6.22;;;24.10;50.90;;;;;;5004502;28;114055;-79
2023/08/15 00:14:13;;;;;;;9.05;6.72;;;24.10;50.90;;;;;;5006033;28;114257;-79
2023/08/15 00:16:40;;;;;;;9.35;6.32;;;24.20;50.80;;;;;;5004971;28;114933;-80
2023/08/15 00:19:07;;;;;;;7.25;6.25;;;24.20;50.80;;;;;;5005548;28;114553;-80
2023/08/15 00:21:34;;;;;;;8.00;6.25;;;24.30;50.70;;;;;;5006172;28;114330;-80
2023/08/15 00:24:01;;;;;;;10.05;6.90;;;24.30;50.50;;;;;;5005140;28;114344;-78
2023/08/15 00:26:28;;;;;;;8.93;6.40;;;24.30;50.40;;;;;;5004208;28;115086;-79
2023/08/15 00:28:55;;;;;;;7.95;6.53;;;24.30;50.40;;;;;;5005206;28;115827;-78
2023/08/15 00:31:22;;;;;;;7.68;6.28;;;24.30;50.60;;;;;;5004613;28;114318;-79
2023/08/15 00:33:50;;;;;;;8.00;6.50;;;24.30;50.60;;;;;;5004950;28;114574;-79
2023/08/15 00:36:17;;;;;;;7.57;5.93;;;24.30;50.50;;;;;;5003624;28;115389;-80
2023/08/15 00:38:44;;;;;;;7.30;6.30;;;24.30;50.60;;;;;;5003822;28;115083;-80
2023/08/15 00:41:11;;;;;;;9.18;6.30;;;24.30;50.60;;;;;;4987585;28;114231;-80
2023/08/15 00:43:38;;;;;;;7.97;6.57;;;24.30;50.60;;;;;;5004475;28;114366;-80
2023/08/15 00:46:06;;;;;;;8.90;7.13;;;24.30;50.60;;;;;;5003541;28;116003;-79
2023/08/15 00:48:33;;;;;;;8.48;5.85;;;24.30;50.40;;;;;;4987149;28;114702;-79
2023/08/15 00:51:00;;;;;;;8.25;6.50;;;24.30;50.60;;;;;;5004556;28;114181;-79
2023/08/15 00:53:28;;;;;;;8.25;6.40;;;24.30;50.60;;;;;;4971439;28;114227;-79
2023/08/15 00:55:56;;;;;;;8.80;6.50;;;24.30;50.70;;;;;;4970736;28;115022;-78
2023/08/15 00:58:23;;;;;;;8.63;6.47;;;24.30;50.70;;;;;;4987642;28;114831;-79
2023/08/15 01:00:54;;;;;;;8.40;7.20;;;24.20;50.80;;;;;;4988074;28;114317;-79
2023/08/15 01:03:21;;;;;;;8.05;6.57;;;24.10;50.60;;;;;;5005672;28;114193;-79
2023/08/15 01:05:48;;;;;;;8.20;7.03;;;23.90;51.00;;;;;;5002939;28;114827;-80
2023/08/15 01:08:16;;;;;;;8.35;6.50;;;23.80;51.20;;;;;;5004668;28;114673;-80
2023/08/15 01:10:43;;;;;;;9.80;6.50;;;23.60;51.90;;;;;;5005269;28;114304;-80
2023/08/15 01:13:40;;;;;;;8.20;6.90;;;23.50;52.30;;;;;;4971250;28;114282;-81
2023/08/15 01:16:10;;;;;;;6.93;5.78;;;23.60;51.60;;;;;;4971488;28;117620;-80
2023/08/15 01:18:45;;;;;;;6.75;6.00;;;23.30;52.80;;;;;;4987406;28;114956;-81
2023/08/15 01:21:13;;;;;;;7.43;6.15;;;23.30;52.90;;;;;;4971631;28;114213;-78
2023/08/15 01:23:44;;;;;;;6.82;6.10;;;23.40;52.70;;;;;;4987930;28;114389;-78
2023/08/15 01:26:11;;;;;;;9.45;7.07;;;23.60;52.60;;;;;;5003072;28;116850;-80
2023/08/15 01:28:39;;;;;;;6.85;6.15;;;23.60;52.00;;;;;;4986442;28;115752;-79
2023/08/15 01:31:35;;;;;;;9.93;7.28;;;23.50;52.40;;;;;;5004350;28;114273;-80
2023/08/15 01:34:02;;;;;;;10.68;8.63;;;23.50;52.20;;;;;;5003476;28;114318;-79
2023/08/15 01:36:32;;;;;;;9.57;7.22;;;23.40;52.50;;;;;;4986392;28;114906;-80
2023/08/15 01:39:03;;;;;;;8.95;6.90;;;23.50;52.70;;;;;;4986607;28;114553;-80
2023/08/15 01:41:37;;;;;;;9.02;6.90;;;23.60;52.50;;;;;;5003917;28;114405;-78
2023/08/15 01:44:06;;;;;;;8.52;6.65;;;23.60;52.40;;;;;;4987481;28;114200;-80
2023/08/15 01:46:33;;;;;;;10.13;6.68;;;23.60;52.30;;;;;;5003022;28;114942;-80
2023/08/15 01:49:00;;;;;;;9.65;6.65;;;23.60;52.10;;;;;;5004361;28;114537;-80
2023/08/15 01:51:28;;;;;;;8.25;6.45;;;23.50;52.40;;;;;;5005030;28;114400;-80
2023/08/15 01:53:55;;;;;;;7.85;6.30;;;23.50;51.40;;;;;;5003297;28;114329;-79
2023/08/15 01:56:24;;;;;;;8.43;6.43;;;23.40;52.40;;;;;;4985754;28;114958;-80
2023/08/15 01:58:51;;;;;;;10.20;6.50;;;23.30;52.80;;;;;;5003672;28;114602;-79
2023/08/15 02:01:18;;;;;;;9.50;7.05;;;23.40;51.80;;;;;;5003619;28;114742;-79
2023/08/15 02:03:45;;;;;;;8.73;6.50;;;23.30;51.80;;;;;;5003590;28;114229;-79
2023/08/15 02:06:12;;;;;;;9.05;6.35;;;23.20;52.20;;;;;;4986094;28;115079;-80
2023/08/15 02:08:40;;;;;;;7.93;6.50;;;22.90;52.80;;;;;;4969393;28;116511;-80
2023/08/15 02:11:07;;;;;;;9.30;6.53;;;22.90;53.10;;;;;;4986872;28;114337;-79
2023/08/15 02:13:34;;;;;;;9.65;6.75;;;23.00;53.30;;;;;;5003383;28;114294;-79
2023/08/15 02:16:01;;;;;;;6.82;6.07;;;23.10;53.20;;;;;;5003456;28;114956;-80
2023/08/15 02:18:29;;;;;;;8.38;6.60;;;23.20;53.30;;;;;;4985582;28;116086;-80
2023/08/15 02:20:56;;;;;;;7.47;6.40;;;23.30;52.80;;;;;;4986434;28;114333;-79
2023/08/15 02:23:23;;;;;;;7.68;6.28;;;23.30;52.80;;;;;;5003045;28;114717;-80
2023/08/15 02:25:50;;;;;;;9.05;6.60;;;23.50;52.60;;;;;;4969236;28;118434;-79
2023/08/15 02:28:17;;;;;;;7.47;6.00;;;23.50;52.30;;;;;;5002336;28;115228;-80
2023/08/15 02:30:44;;;;;;;10.18;6.30;;;23.50;52.40;;;;;;4986696;28;114290;-80
2023/08/15 02:33:11;;;;;;;8.70;6.32;;;23.60;52.30;;;;;;4986383;28;114559;-79
2023/08/15 02:35:40;;;;;;;10.20;7.20;;;23.60;52.20;;;;;;5002772;28;114997;-80
2023/08/15 02:38:10;;;;;;;8.30;6.70;;;23.60;51.90;;;;;;5003343;28;115222;-80
2023/08/15 02:40:37;;;;;;;8.80;6.90;;;23.70;52.10;;;;;;4986378;28;114082;-80
2023/08/15 02:43:04;;;;;;;10.85;7.55;;;23.70;52.00;;;;;;4969852;28;114360;-80
2023/08/15 02:45:31;;;;;;;9.30;7.15;;;23.70;51.70;;;;;;5002942;28;115010;-79
2023/08/15 02:48:00;;;;;;;10.18;7.78;;;23.70;51.90;;;;;;5001674;28;115544;-80
2023/08/15 02:50:28;;;;;;;6.70;6.00;;;23.70;51.50;;;;;;5002762;28;114572;-79
2023/08/15 02:52:55;;;;;;;7.97;6.53;;;23.70;52.00;;;;;;5003685;28;114282;-78
2023/08/15 02:55:22;;;;;;;8.13;6.38;;;23.70;51.70;;;;;;4985165;28;115620;-80
2023/08/15 02:57:50;;;;;;;8.52;6.53;;;23.80;51.50;;;;;;5001908;28;114860;-80
2023/08/15 03:00:17;;;;;;;9.13;6.60;;;23.80;51.70;;;;;;5002783;28;114169;-80
2023/08/15 03:02:44;;;;;;;8.65;6.50;;;23.70;51.40;;;;;;5004198;28;114426;-80
2023/08/15 03:05:11;;;;;;;7.20;6.43;;;23.80;51.00;;;;;;5001773;28;114915;-80
2023/08/15 03:07:38;;;;;;;7.72;6.65;;;23.80;51.40;;;;;;5003016;28;114639;-79
2023/08/15 03:10:06;;;;;;;8.15;6.47;;;23.80;51.50;;;;;;4985282;28;114245;-79
2023/08/15 03:12:33;;;;;;;9.13;7.00;;;23.70;51.60;;;;;;5002462;28;114039;-79
2023/08/15 03:15:00;;;;;;;10.27;6.20;;;23.70;51.40;;;;;;5001481;28;115379;-80
2023/08/15 03:17:27;;;;;;;7.57;6.63;;;23.60;51.60;;;;;;5001697;28;115093;-79
2023/08/15 03:19:55;;;;;;;8.93;6.90;;;23.60;51.40;;;;;;5002316;28;114436;-79
2023/08/15 03:22:22;;;;;;;8.32;6.75;;;23.50;51.00;;;;;;5003510;28;114122;-80
2023/08/15 03:24:49;;;;;;;8.70;6.65;;;23.40;51.90;;;;;;5001389;28;114835;-79
2023/08/15 03:27:16;;;;;;;9.05;6.97;;;23.40;52.10;;;;;;4985255;28;114722;-80
2023/08/15 03:29:43;;;;;;;8.93;6.28;;;23.40;51.20;;;;;;5002238;28;114453;-79
2023/08/15 03:32:11;;;;;;;9.10;6.57;;;23.40;51.70;;;;;;5002145;28;114493;-80
2023/08/15 03:34:38;;;;;;;8.55;6.15;;;23.30;52.10;;;;;;4984391;28;114839;-80
2023/08/15 03:37:05;;;;;;;7.25;6.22;;;23.30;52.30;;;;;;5002095;28;114878;-80
2023/08/15 03:39:32;;;;;;;10.07;6.78;;;23.40;52.10;;;;;;5001948;28;113924;-79
2023/08/15 03:41:59;;;;;;;8.65;6.15;;;23.50;51.20;;;;;;4985394;28;114253;-79
2023/08/15 03:44:26;;;;;;;9.10;6.47;;;23.40;52.10;;;;;;5002458;28;115003;-79
2023/08/15 03:46:54;;;;;;;8.93;6.13;;;23.40;52.10;;;;;;5002894;28;114660;-79
2023/08/15 03:49:21;;;;;;;9.65;7.80;;;23.50;52.00;;;;;;4988787;28;114132;-80
2023/08/15 03:51:48;;;;;;;9.00;6.57;;;23.60;50.80;;;;;;5006978;28;114263;-79
2023/08/15 03:54:16;;;;;;;10.38;7.82;;;23.50;51.70;;;;;;4988136;28;115485;-80
2023/08/15 03:56:44;;;;;;;9.27;6.72;;;23.50;51.30;;;;;;4987702;28;115854;-80
2023/08/15 03:59:12;;;;;;;10.10;6.78;;;23.50;51.80;;;;;;5005873;28;114028;-79
2023/08/15 04:01:40;;;;;;;8.82;6.18;;;23.50;51.30;;;;;;4988694;28;114327;-80
2023/08/15 04:04:07;;;;;;;8.27;6.50;;;23.50;51.70;;;;;;5004317;28;117393;-79
2023/08/15 04:06:34;;;;;;;8.13;6.95;;;23.50;51.70;;;;;;5004400;28;114754;-80
2023/08/15 04:09:02;;;;;;;10.40;6.72;;;23.50;51.10;;;;;;5005190;28;114397;-79
2023/08/15 04:11:29;;;;;;;7.05;6.15;;;23.30;51.10;;;;;;5005204;28;114329;-80
2023/08/15 04:13:57;;;;;;;9.27;6.15;;;23.30;52.30;;;;;;5004369;28;115441;-80
2023/08/15 04:16:26;;;;;;;8.43;7.28;;;23.50;52.10;;;;;;4971923;28;115163;-79
2023/08/15 04:18:53;;;;;;;6.65;5.80;;;23.80;51.30;;;;;;5006318;28;114348;-79
2023/08/15 04:21:20;;;;;;;8.73;6.25;;;23.90;51.30;;;;;;5004934;28;114316;-80
2023/08/15 04:23:47;;;;;;;7.22;6.00;;;24.20;50.70;;;;;;5003493;28;114839;-79
2023/08/15 04:26:15;;;;;;;8.00;5.88;;;24.40;50.20;;;;;;5005581;28;114638;-80
2023/08/15 04:28:42;;;;;;;8.40;6.95;;;24.70;49.80;;;;;;4988660;28;114113;-80
2023/08/15 04:31:09;;;;;;;6.78;5.32;;;24.80;49.10;;;;;;4988822;28;114206;-79
2023/08/15 04:33:36;;;;;;;8.20;6.63;;;24.90;49.20;;;;;;4971851;28;114938;-80
2023/08/15 04:36:03;;;;;;;9.52;6.70;;;25.00;48.40;;;;;;5004531;28;115031;-80
2023/08/15 04:38:31;;;;;;;7.03;6.30;;;25.00;48.10;;;;;;5004953;28;114224;-80
2023/08/15 04:40:58;;;;;;;10.73;7.55;;;25.00;48.20;;;;;;5005115;28;114266;-80
2023/08/15 04:43:26;;;;;;;8.88;5.78;;;25.00;47.90;;;;;;5005670;28;114817;-79
2023/08/15 04:45:54;;;;;;;8.38;6.40;;;25.10;48.00;;;;;;5004209;28;114637;-79
2023/08/15 04:48:21;;;;;;;12.07;6.95;;;25.20;47.70;;;;;;5004055;28;114257;-80
2023/08/15 04:50:48;;;;;;;10.30;6.47;;;25.20;47.10;;;;;;5004488;28;114274;-79
2023/08/15 04:53:15;;;;;;;8.30;6.47;;;25.30;47.30;;;;;;5004931;28;114863;-80
2023/08/15 04:55:42;;;;;;;9.85;6.20;;;25.30;47.30;;;;;;5005158;28;115019;-79
2023/08/15 04:58:10;;;;;;;10.68;6.53;;;25.30;47.00;;;;;;5005651;28;114005;-79
2023/08/15 05:00:37;;;;;;;8.75;6.15;;;25.30;47.00;;;;;;5006198;28;114295;-79
2023/08/15 05:03:04;;;;;;;9.27;6.57;;;25.50;46.70;;;;;;4970787;28;114921;-79
2023/08/15 05:05:32;;;;;;;12.80;6.72;;;25.50;46.50;;;;;;5005795;28;114599;-79
2023/08/15 05:07:59;;;;;;;8.10;5.97;;;25.60;46.40;;;;;;4988298;28;114368;-80
2023/08/15 05:10:26;;;;;;;8.85;6.07;;;25.80;46.00;;;;;;4987815;28;114363;-80
2023/08/15 05:12:56;;;;;;;9.00;6.03;;;25.80;46.10;;;;;;4954233;28;118005;-79
2023/08/15 05:15:24;;;;;;;8.13;5.60;;;25.80;45.70;;;;;;5003537;28;114558;-80
2023/08/15 05:17:52;;;;;;;9.20;5.20;;;25.90;45.60;;;;;;5004744;28;114288;-80
2023/08/15 05:20:19;;;;;;;7.93;5.30;;;26.00;45.50;;;;;;4988238;28;114456;-80
2023/08/15 05:22:50;;;;;;;6.45;5.00;;;26.00;45.30;;;;;;4987577;28;115029;-80
2023/08/15 05:25:17;;;;;;;9.93;5.38;;;26.10;45.30;;;;;;5003249;28;116810;-80
2023/08/15 05:27:48;;;;;;;7.88;4.80;;;26.30;45.10;;;;;;5004242;28;114391;-81
2023/08/15 05:30:16;;;;;;;7.30;5.10;;;26.40;44.70;;;;;;5004425;28;114239;-79
2023/08/15 05:32:43;;;;;;;6.32;4.78;;;26.50;44.50;;;;;;4987096;28;116890;-80
2023/08/15 05:35:10;;;;;;;9.85;5.47;;;26.60;44.30;;;;;;5004434;28;114860;-80
2023/08/15 05:37:37;;;;;;;8.15;4.70;;;26.80;44.30;;;;;;5004105;28;114165;-80
2023/08/15 05:40:05;;;;;;;10.07;5.43;;;26.90;44.10;;;;;;5004900;28;114634;-80
2023/08/15 05:42:32;;;;;;;9.40;4.82;;;27.00;43.70;;;;;;5003054;28;115083;-80
2023/08/15 05:44:59;;;;;;;5.68;4.50;;;27.20;43.40;;;;;;4969912;28;117025;-80
2023/08/15 05:47:26;;;;;;;6.68;4.70;;;27.30;43.10;;;;;;5003946;28;114220;-79
2023/08/15 05:49:53;;;;;;;5.18;4.53;;;27.30;42.90;;;;;;5003394;28;114534;-80
2023/08/15 05:52:20;;;;;;;6.63;4.70;;;27.50;42.80;;;;;;5002876;28;114806;-80
2023/08/15 05:54:47;;;;;;;7.32;4.32;;;27.70;42.60;;;;;;5004214;28;114635;-80
2023/08/15 05:57:14;;;;;;;7.43;4.78;;;27.80;42.60;;;;;;5004671;28;114436;-79
2023/08/15 05:59:41;;;;;;;9.40;4.78;;;27.80;42.30;;;;;;5003416;28;114601;-80
2023/08/15 06:02:09;;;;;;;7.75;4.80;;;27.90;42.10;;;;;;5002513;28;114951;-80
2023/08/15 06:04:36;;;;;;;7.05;4.57;;;28.00;41.90;;;;;;5002896;28;115252;-80
2023/08/15 06:07:04;;;;;;;11.40;4.60;;;28.20;41.90;;;;;;5004328;28;114350;-79
2023/08/15 06:09:31;;;;;;;7.70;4.68;;;28.20;41.50;;;;;;5003562;28;114622;-79
2023/08/15 06:11:58;;;;;;;7.35;4.82;;;28.30;41.60;;;;;;5002595;28;115271;-79
2023/08/15 06:14:25;;;;;;;7.25;4.20;;;28.30;41.70;;;;;;5002578;28;115181;-80
2023/08/15 06:16:52;;;;;;;5.95;4.30;;;28.40;41.50;;;;;;5003336;28;114244;-80
2023/08/15 06:19:19;;;;;;;7.55;4.47;;;28.60;41.20;;;;;;5004911;28;114268;-79
2023/08/15 06:21:46;;;;;;;7.07;4.05;;;28.80;40.80;;;;;;5002251;28;115783;-81
2023/08/15 06:24:14;;;;;;;8.32;4.82;;;28.80;40.90;;;;;;5002621;28;114721;-80
2023/08/15 06:26:41;;;;;;;7.35;4.85;;;29.00;41.00;;;;;;5002885;28;114317;-80
2023/08/15 06:29:08;;;;;;;5.78;4.40;;;29.10;40.40;;;;;;5003211;28;114196;-79
2023/08/15 06:31:35;;;;;;;7.82;4.15;;;29.30;39.60;;;;;;5002209;28;115368;-80
2023/08/15 06:34:03;;;;;;;6.95;4.40;;;29.20;40.00;;;;;;5002389;28;114537;-79
2023/08/15 06:36:30;;;;;;;8.55;4.38;;;29.30;39.60;;;;;;5002371;28;114584;-80
2023/08/15 06:38:58;;;;;;;9.23;4.25;;;29.40;39.60;;;;;;5004176;28;114336;-82
2023/08/15 06:41:25;;;;;;;8.90;4.45;;;29.50;39.00;;;;;;5002662;28;114850;-80
2023/08/15 06:43:53;;;;;;;9.55;4.53;;;29.60;39.20;;;;;;4987446;28;114664;-79
2023/08/15 06:46:20;;;;;;;5.68;3.85;;;29.70;38.70;;;;;;5004973;28;114216;-81
2023/08/15 06:48:47;;;;;;;5.95;4.18;;;29.80;38.30;;;;;;5004258;28;114302;-80
2023/08/15 06:51:15;;;;;;;8.45;4.35;;;29.80;38.60;;;;;;4985014;28;117396;-80
2023/08/15 06:53:44;;;;;;;6.72;4.40;;;29.70;38.50;;;;;;5001862;28;114602;-81
2023/08/15 06:56:11;;;;;;;7.07;3.85;;;29.70;38.60;;;;;;5002732;28;116021;-80
2023/08/15 06:58:39;;;;;;;10.10;4.20;;;29.60;38.50;;;;;;5005565;28;114210;-80
2023/08/15 07:01:06;;;;;;;6.72;3.78;;;29.60;38.50;;;;;;5003890;28;114400;-80
2023/08/15 07:03:33;;;;;;;7.90;3.53;;;29.60;38.30;;;;;;5003462;28;114668;-80
2023/08/15 07:06:03;;;;;;;6.47;4.00;;;29.50;38.30;;;;;;5004128;28;114241;-79
2023/08/15 07:08:31;;;;;;;5.80;3.63;;;29.20;38.80;;;;;;5004224;28;114408;-80
2023/08/15 07:10:58;;;;;;;6.07;3.80;;;29.00;39.20;;;;;;5002929;28;114814;-80
2023/08/15 07:13:25;;;;;;;5.90;4.07;;;29.10;39.50;;;;;;5002704;28;114532;-79
2023/08/15 07:15:54;;;;;;;5.40;3.80;;;29.10;39.60;;;;;;5003175;28;114120;-79
2023/08/15 07:18:25;;;;;;;7.50;4.40;;;29.30;39.10;;;;;;5002217;28;114429;-80
2023/08/15 07:20:52;;;;;;;5.15;3.95;;;29.30;38.60;;;;;;5001638;28;115090;-80
2023/08/15 07:23:22;;;;;;;6.45;3.95;;;29.20;38.80;;;;;;4984725;28;114556;-79
2023/08/15 07:25:49;;;;;;;5.95;4.40;;;29.00;39.20;;;;;;5003622;28;114023;-79
2023/08/15 07:28:17;;;;;;;6.25;3.97;;;28.80;39.70;;;;;;5003380;28;114302;-79
2023/08/15 07:30:45;;;;;;;5.63;3.90;;;29.00;40.00;;;;;;5003505;28;115276;-81
2023/08/15 07:33:13;;;;;;;6.43;3.60;;;29.20;39.60;;;;;;4985826;28;116316;-80
2023/08/15 07:35:41;;;;;;;5.47;4.13;;;29.30;38.70;;;;;;4998819;28;114307;-80
2023/08/15 07:38:09;;;;;;;7.45;3.88;;;29.20;39.20;;;;;;4977600;28;117415;-80
2023/08/15 07:40:36;;;;;;;5.10;3.70;;;29.20;39.90;;;;;;4995568;28;116109;-79
2023/08/15 07:43:03;;;;;;;8.38;5.82;;;29.30;39.10;;;;;;4979449;28;114721;-80
2023/08/15 07:45:30;;;;;;;5.30;4.05;;;29.50;38.70;;;;;;4996886;28;114409;-80
2023/08/15 07:47:58;;;;;;;6.75;3.72;;;29.60;38.70;;;;;;4994932;28;114355;-80
2023/08/15 07:50:27;;;;;;;6.88;3.60;;;29.60;38.50;;;;;;4997395;28;115153;-78
2023/08/15 07:52:55;;;;;;;8.55;4.32;;;29.70;38.20;;;;;;4978318;28;115341;-80
2023/08/15 07:55:22;;;;;;;6.95;3.67;;;29.70;37.80;;;;;;5003580;28;114439;-79
2023/08/15 07:57:49;;;;;;;6.85;3.85;;;29.80;38.00;;;;;;5003386;28;114060;-80
2023/08/15 08:00:16;;;;;;;6.03;3.80;;;29.90;37.60;;;;;;5002661;28;114947;-80
2023/08/15 08:02:46;;;;;;;8.68;4.07;;;29.80;37.60;;;;;;5002125;28;115539;-80
2023/08/15 08:05:15;;;;;;;6.32;3.70;;;29.80;37.80;;;;;;4985923;28;114286;-80
2023/08/15 08:07:43;;;;;;;6.43;3.60;;;29.90;37.60;;;;;;5003589;28;114338;-79
2023/08/15 08:10:11;;;;;;;9.40;4.18;;;29.90;38.10;;;;;;5001117;28;115075;-79
2023/08/15 08:12:38;;;;;;;6.82;3.60;;;30.00;37.70;;;;;;5002619;28;114763;-80
2023/08/15 08:15:06;;;;;;;7.00;3.80;;;30.20;37.30;;;;;;4985488;28;114305;-81
2023/08/15 08:17:36;;;;;;;4.68;3.85;;;30.20;37.40;;;;;;5003105;28;114317;-80
2023/08/15 08:20:09;;;;;;;5.53;3.65;;;30.30;37.20;;;;;;5001741;28;114942;-80
2023/08/15 08:22:36;;;;;;;6.65;3.45;;;30.40;36.90;;;;;;4985699;28;115273;-81
2023/08/15 08:25:18;;;;;;;7.00;4.13;;;30.50;36.30;;;;;;5003031;28;114119;-81
2023/08/15 08:27:46;;;;;;;6.85;3.65;;;30.70;36.70;;;;;;5002103;28;114209;-81
2023/08/15 08:30:15;;;;;;;5.32;3.70;;;30.80;36.80;;;;;;5001676;28;114868;-79
2023/08/15 08:32:43;;;;;;;6.50;3.67;;;30.80;36.40;;;;;;5002508;28;115357;-79
2023/08/15 08:35:11;;;;;;;6.97;4.22;;;30.90;36.40;;;;;;5005334;28;114151;-81
2023/08/15 08:37:38;;;;;;;4.97;3.60;;;31.00;35.50;;;;;;5004358;28;114238;-80
2023/08/15 08:40:07;;;;;;;6.28;4.22;;;31.00;35.20;;;;;;5005352;28;114939;-80
2023/08/15 08:42:34;;;;;;;7.90;4.00;;;31.00;35.20;;;;;;5004171;28;115005;-80
2023/08/15 08:45:02;;;;;;;5.25;3.50;;;31.10;34.80;;;;;;5005060;28;114303;-81
2023/08/15 08:47:32;;;;;;;5.97;3.97;;;31.10;34.60;;;;;;5005396;28;114255;-80
2023/08/15 08:50:00;;;;;;;7.47;4.25;;;31.10;34.70;;;;;;5006206;28;115014;-80
2023/08/15 08:52:28;;;;;;;7.85;3.95;;;31.10;34.80;;;;;;4987500;28;117351;-80
2023/08/15 08:54:55;;;;;;;5.85;4.43;;;31.00;35.40;;;;;;5004226;28;114486;-80
2023/08/15 08:57:26;;;;;;;6.53;3.40;;;30.90;35.20;;;;;;5004562;28;114397;-80
2023/08/15 08:59:54;;;;;;;6.68;3.80;;;30.90;35.30;;;;;;4954931;28;116958;-81
2023/08/15 09:02:22;;;;;;;6.63;3.60;;;31.00;35.00;;;;;;4971082;28;114393;-79
2023/08/15 09:04:49;;;;;;;6.78;3.58;;;30.90;35.10;;;;;;5005057;28;114024;-80
2023/08/15 09:07:16;;;;;;;5.72;3.80;;;30.90;35.20;;;;;;5006234;28;114278;-81
2023/08/15 09:09:44;;;;;;;8.98;3.97;;;30.90;35.30;;;;;;5004737;28;115483;-80
2023/08/15 09:12:39;;;;;;;6.13;3.65;;;30.90;35.30;;;;;;5005414;28;114633;-81
2023/08/15 09:15:07;;;;;;;5.35;3.78;;;30.90;34.90;;;;;;4990592;28;114393;-80
2023/08/15 09:17:34;;;;;;;5.50;3.80;;;30.80;35.10;;;;;;5005760;28;114485;-79
2023/08/15 09:20:12;;;;;;;9.43;3.58;;;30.80;35.20;;;;;;5004386;28;114897;-80
2023/08/15 09:22:45;;;;;;;6.90;3.60;;;31.00;34.90;;;;;;5004845;28;115210;-78
2023/08/15 09:25:17;;;;;;;6.03;3.42;;;31.00;35.20;;;;;;5005566;28;114152;-78
2023/08/15 09:27:46;;;;;;;8.20;3.35;;;31.10;35.00;;;;;;5005609;28;114506;-80
2023/08/15 09:30:14;;;;;;;7.55;3.92;;;31.20;35.20;;;;;;4986865;28;115166;-80
2023/08/15 09:32:41;;;;;;;8.60;3.70;;;31.30;33.90;;;;;;5004533;28;114925;-80
2023/08/15 09:35:11;;;;;;;4.63;3.40;;;31.20;33.80;;;;;;5005732;28;114369;-80
2023/08/15 09:37:51;;;;;;;8.18;3.50;;;31.10;33.60;;;;;;5004228;28;114347;-79
2023/08/15 09:40:24;;;;;;;5.90;3.47;;;31.10;34.10;;;;;;5003269;28;114966;-78
2023/08/15 09:42:52;;;;;;;8.00;3.88;;;31.00;33.80;;;;;;5002662;28;114903;-79
2023/08/15 09:45:20;;;;;;;4.68;3.95;;;31.20;34.50;;;;;;5002925;28;114059;-78
2023/08/15 09:47:47;;;;;;;5.18;3.80;;;31.30;33.70;;;;;;4987678;28;114268;-78
2023/08/15 09:50:15;;;;;;;6.75;3.92;;;31.40;33.40;;;;;;5003661;28;114898;-79
2023/08/15 09:52:44;;;;;;;6.70;4.20;;;31.50;33.60;;;;;;5004913;28;116571;-80
2023/08/15 09:55:13;;;;;;;4.97;3.58;;;31.60;33.20;;;;;;5004008;28;114171;-80
2023/08/15 09:57:41;;;;;;;6.03;3.90;;;31.60;32.40;;;;;;5005044;28;115216;-80
2023/08/15 10:00:12;;;;;;;5.53;3.47;;;31.60;32.40;;;;;;5003420;28;114937;-79
2023/08/15 10:03:03;;;;;;;7.32;3.80;;;31.40;33.00;;;;;;5004074;28;115176;-79
2023/08/15 10:05:32;;;;;;;6.40;3.45;;;31.40;32.80;;;;;;5001567;28;114439;-80
2023/08/15 10:07:59;;;;;;;6.72;3.70;;;31.30;33.50;;;;;;4991051;28;114206;-80
2023/08/15 10:10:30;;;;;;;4.30;3.15;;;31.30;32.50;;;;;;5002646;28;114845;-79
2023/08/15 10:12:57;;;;;;;5.75;3.35;;;31.10;32.70;;;;;;5004466;28;114699;-80
2023/08/15 10:15:25;;;;;;;6.43;3.30;;;30.90;33.40;;;;;;5003893;28;114469;-81
2023/08/15 10:17:52;;;;;;;7.82;3.63;;;30.90;33.70;;;;;;5005112;28;114120;-80
2023/08/15 10:20:20;;;;;;;4.82;3.30;;;31.00;33.60;;;;;;5003596;28;115015;-80
2023/08/15 10:22:52;;;;;;;5.07;3.67;;;31.20;33.70;;;;;;5005003;28;114681;-81
2023/08/15 10:25:22;;;;;;;4.77;3.53;;;31.20;33.40;;;;;;5005209;28;114219;-81
2023/08/15 10:27:53;;;;;;;6.15;3.55;;;31.10;33.80;;;;;;5005012;28;114282;-80
2023/08/15 10:30:53;;;;;;;6.85;3.60;;;31.00;33.80;;;;;;4986335;28;115530;-81
2023/08/15 10:33:22;;;;;;;6.60;3.35;;;31.10;33.80;;;;;;4991412;28;115196;-80
2023/08/15 10:35:55;;;;;;;8.63;3.58;;;31.00;34.10;;;;;;5002445;28;114282;-81
2023/08/15 10:38:29;;;;;;;7.32;3.55;;;31.00;34.20;;;;;;5002981;28;114099;-81
2023/08/15 10:41:12;;;;;;;;;;;31.10;33.50;;;;;;5003921;28;115103;-79
2023/08/15 10:43:39;;;;;;;5.43;3.53;;;31.10;34.00;;;;;;4986115;28;114681;-80
2023/08/15 10:46:07;;;;;;;8.57;3.70;;;31.10;32.90;;;;;;5003157;28;114126;-80
2023/08/15 10:48:47;;;;;;;6.20;3.70;;;31.30;33.00;;;;;;5003019;28;114348;-80
2023/08/15 10:51:34;;;;;;;5.75;3.03;;;31.50;32.10;;;;;;5003330;28;114880;-80
2023/08/15 10:54:03;;;;;;;5.60;3.15;;;31.60;31.90;;;;;;5003581;28;114705;-79
2023/08/15 10:56:32;;;;;;;5.55;3.50;;;31.70;32.00;;;;;;4986215;28;114276;-79
2023/08/15 10:59:01;;;;;;;5.78;3.25;;;31.80;29.90;;;;;;4970330;28;114105;-80
2023/08/15 11:01:28;;;;;;;4.82;3.40;;;31.80;29.90;;;;;;5002759;28;114838;-80
2023/08/15 11:03:56;;;;;;;5.30;3.55;;;31.70;30.60;;;;;;4986124;28;114664;-80
2023/08/15 11:06:24;;;;;;;5.20;4.03;;;31.80;30.40;;;;;;5005441;28;114235;-80
2023/08/15 11:08:54;;;;;;;3.60;3.10;;;31.80;30.50;;;;;;4986310;28;114366;-79
2023/08/15 11:11:21;;;;;;;6.35;3.50;;;31.90;30.80;;;;;;5003159;28;114993;-80
2023/08/15 11:13:50;;;;;;;4.45;3.30;;;31.80;31.40;;;;;;5001949;28;114739;-80
2023/08/15 11:16:19;;;;;;;4.38;3.20;;;31.70;32.30;;;;;;5002416;28;114382;-79
2023/08/15 11:18:48;;;;;;;6.00;3.85;;;31.40;32.30;;;;;;5004715;28;114150;-81
2023/08/15 11:21:17;;;;;;;6.38;3.45;;;31.30;32.60;;;;;;5002117;28;114825;-79
2023/08/15 11:23:45;;;;;;;5.18;3.47;;;31.10;33.10;;;;;;5003014;28;114234;-80
2023/08/15 11:26:15;;;;;;;4.93;3.58;;;31.20;33.00;;;;;;5003420;28;114004;-79
2023/08/15 11:28:42;;;;;;;5.32;3.42;;;31.30;32.70;;;;;;5002396;28;114593;-81
2023/08/15 11:31:13;;;;;;;5.75;3.28;;;31.40;31.20;;;;;;5001772;28;114969;-79
2023/08/15 11:33:43;;;;;;;4.55;3.22;;;31.50;31.10;;;;;;5001734;28;115088;-79
2023/08/15 11:36:10;;;;;;;5.72;3.42;;;31.60;31.30;;;;;;5002363;28;114982;-80
2023/08/15 11:38:38;;;;;;;6.20;3.40;;;31.60;31.70;;;;;;5002426;28;114220;-80
2023/08/15 11:41:05;;;;;;;5.63;3.05;;;31.70;32.10;;;;;;5001608;28;115155;-80
2023/08/15 11:43:33;;;;;;;4.47;3.38;;;31.70;31.60;;;;;;5002908;28;114626;-79
2023/08/15 11:46:04;;;;;;;4.55;3.50;;;31.70;31.90;;;;;;5003050;28;114071;-79
2023/08/15 11:48:31;;;;;;;6.20;3.38;;;31.70;32.20;;;;;;4985896;28;114536;-80
2023/08/15 11:50:59;;;;;;;6.10;3.40;;;31.80;31.90;;;;;;4984955;28;114273;-80
2023/08/15 11:53:26;;;;;;;6.43;3.38;;;31.80;31.70;;;;;;4984822;28;115857;-80
2023/08/15 11:55:54;;;;;;;5.68;3.88;;;31.70;32.20;;;;;;5002102;28;114255;-80
2023/08/15 11:58:21;;;;;;;6.35;3.40;;;31.70;31.90;;;;;;5002001;28;114176;-80
2023/08/15 12:01:11;;;;;;;5.13;3.80;;;31.60;31.60;;;;;;5002740;28;114973;-80
2023/08/15 12:03:39;;;;;;;6.07;3.50;;;31.70;31.90;;;;;;5003139;28;115084;-80
2023/08/15 12:06:07;;;;;;;6.82;3.70;;;31.60;31.70;;;;;;5002308;28;114171;-79
2023/08/15 12:08:35;;;;;;;6.72;3.70;;;31.50;31.90;;;;;;5006351;28;114323;-79
2023/08/15 12:11:07;;;;;;;4.53;3.40;;;31.40;32.00;;;;;;5006037;28;115015;-80
2023/08/15 12:13:37;;;;;;;4.80;3.08;;;31.20;32.30;;;;;;5004702;28;114682;-80
2023/08/15 12:16:05;;;;;;;5.15;3.90;;;31.20;32.60;;;;;;5004599;28;114166;-80
2023/08/15 12:18:32;;;;;;;4.55;3.15;;;31.00;33.00;;;;;;5004280;28;114387;-79
2023/08/15 12:21:00;;;;;;;5.95;3.50;;;30.90;32.20;;;;;;5004448;28;114901;-80
2023/08/15 12:23:27;;;;;;;4.55;3.17;;;30.90;32.10;;;;;;5005641;28;114735;-78
2023/08/15 12:25:55;;;;;;;4.47;3.35;;;30.80;32.00;;;;;;5005122;28;114097;-80
2023/08/15 12:28:22;;;;;;;4.72;3.30;;;30.90;31.60;;;;;;5005050;28;114155;-80
2023/08/15 12:30:50;;;;;;;6.75;3.42;;;30.90;31.60;;;;;;5005459;28;115012;-80
2023/08/15 12:33:17;;;;;;;5.32;3.45;;;30.90;32.20;;;;;;5006499;28;114790;-78
2023/08/15 12:36:04;;;;;;;4.95;3.67;;;31.00;32.30;;;;;;5005664;28;114567;-79
2023/08/15 12:38:31;;;;;;;6.53;3.40;;;31.20;32.20;;;;;;5006172;28;114596;-79
2023/08/15 12:40:58;;;;;;;4.82;3.40;;;31.30;32.20;;;;;;5004647;28;116255;-79
2023/08/15 12:43:25;;;;;;;5.85;3.40;;;31.30;32.20;;;;;;4971047;28;114887;-80